首页
METAR-TAF:

METAR-TAF

机场 :

Greater Kankakee Airport

Kankakee, 伊利诺伊州, 美国

纬度: 41-04-17N, 经度: 087-50-47W, 海拔: 192米

当前天气观测

该预报发布于20分钟前的14:55 UTC
风速12节,风向南转西南,有时为20节阵风
温度 26°C
湿度 58%
气压 1015 hPa
能見度: 16.1公里
多云层高于10000英尺

METAR: KIKK 221455Z AUTO 21012G20KT 10SM BKN100 26/17 A2997 RMK AO2 T02570166

时间: 10:15 (15:15 UTC)


TAF: 丢失

超过4000个机场的气象观测和天气预报(METAR&TAF报告)。

可查询的气象台以黄色和红色小点在地图上表示。

将鼠标移到小点上方,可查看气象台名称。

然后点击查看天气观测和预报。

如需切换地图:点击带黑十字的绿色按钮放大地图;点击带横线的绿色按钮缩小地图;或者点击绿色箭头查看邻近地区的地图。


METAR-TAF: